sensor_id;sensor_type;location;lat;lon;timestamp;temperature;humidity
23560;DHT22;11958;50.836;4.438;2022-07-29T00:01:47;19.60;45.90
23560;DHT22;11958;50.836;4.438;2022-07-29T00:04:13;19.60;45.80
23560;DHT22;11958;50.836;4.438;2022-07-29T00:06:39;19.70;45.80
23560;DHT22;11958;50.836;4.438;2022-07-29T00:09:05;19.60;46.00
23560;DHT22;11958;50.836;4.438;2022-07-29T00:11:30;19.70;45.60
23560;DHT22;11958;50.836;4.438;2022-07-29T00:13:56;19.50;46.20
23560;DHT22;11958;50.836;4.438;2022-07-29T00:16:22;19.60;46.30
23560;DHT22;11958;50.836;4.438;2022-07-29T00:18:48;19.50;46.30
23560;DHT22;11958;50.836;4.438;2022-07-29T00:21:14;19.60;46.20
23560;DHT22;11958;50.836;4.438;2022-07-29T00:23:40;19.50;46.80
23560;DHT22;11958;50.836;4.438;2022-07-29T00:26:06;19.50;46.50
23560;DHT22;11958;50.836;4.438;2022-07-29T00:28:31;19.50;46.70
23560;DHT22;11958;50.836;4.438;2022-07-29T00:30:57;19.60;46.50
23560;DHT22;11958;50.836;4.438;2022-07-29T00:33:22;19.50;46.60
23560;DHT22;11958;50.836;4.438;2022-07-29T00:35:48;19.50;46.90
23560;DHT22;11958;50.836;4.438;2022-07-29T00:38:16;19.60;46.10
23560;DHT22;11958;50.836;4.438;2022-07-29T00:40:44;19.80;45.60
23560;DHT22;11958;50.836;4.438;2022-07-29T00:43:11;20.00;45.40
23560;DHT22;11958;50.836;4.438;2022-07-29T00:45:37;19.70;45.60
23560;DHT22;11958;50.836;4.438;2022-07-29T00:48:03;20.20;45.00
23560;DHT22;11958;50.836;4.438;2022-07-29T00:50:31;19.90;45.50
23560;DHT22;11958;50.836;4.438;2022-07-29T00:52:57;19.50;46.20
23560;DHT22;11958;50.836;4.438;2022-07-29T00:55:23;19.50;46.60
23560;DHT22;11958;50.836;4.438;2022-07-29T00:57:49;19.40;46.80
23560;DHT22;11958;50.836;4.438;2022-07-29T01:00:18;19.30;47.20
23560;DHT22;11958;50.836;4.438;2022-07-29T01:02:45;19.20;47.10
23560;DHT22;11958;50.836;4.438;2022-07-29T01:05:15;19.20;47.60
23560;DHT22;11958;50.836;4.438;2022-07-29T01:07:42;19.20;47.70
23560;DHT22;11958;50.836;4.438;2022-07-29T01:10:09;19.40;46.90
23560;DHT22;11958;50.836;4.438;2022-07-29T01:12:37;19.20;47.60
23560;DHT22;11958;50.836;4.438;2022-07-29T01:15:05;19.30;47.50
23560;DHT22;11958;50.836;4.438;2022-07-29T01:18:11;19.10;47.80
23560;DHT22;11958;50.836;4.438;2022-07-29T01:23:52;19.30;47.60
23560;DHT22;11958;50.836;4.438;2022-07-29T01:32:12;18.90;48.40
23560;DHT22;11958;50.836;4.438;2022-07-29T01:35:06;18.90;48.50
23560;DHT22;11958;50.836;4.438;2022-07-29T01:40:31;18.70;49.50
23560;DHT22;11958;50.836;4.438;2022-07-29T01:43:11;18.70;50.00
23560;DHT22;11958;50.836;4.438;2022-07-29T01:45:46;18.80;49.60
23560;DHT22;11958;50.836;4.438;2022-07-29T01:48:27;18.60;49.40
23560;DHT22;11958;50.836;4.438;2022-07-29T01:51:02;18.60;50.20
23560;DHT22;11958;50.836;4.438;2022-07-29T01:53:45;18.50;50.10
23560;DHT22;11958;50.836;4.438;2022-07-29T01:56:12;18.50;50.50
23560;DHT22;11958;50.836;4.438;2022-07-29T01:58:40;18.40;50.70
23560;DHT22;11958;50.836;4.438;2022-07-29T02:01:09;18.30;50.80
23560;DHT22;11958;50.836;4.438;2022-07-29T02:03:36;18.30;51.40
23560;DHT22;11958;50.836;4.438;2022-07-29T02:06:04;18.30;51.00
23560;DHT22;11958;50.836;4.438;2022-07-29T02:08:32;18.20;51.70
23560;DHT22;11958;50.836;4.438;2022-07-29T02:11:00;18.30;51.30
23560;DHT22;11958;50.836;4.438;2022-07-29T02:13:27;18.30;51.20
23560;DHT22;11958;50.836;4.438;2022-07-29T02:15:56;18.20;52.00
23560;DHT22;11958;50.836;4.438;2022-07-29T02:18:23;18.20;51.90
23560;DHT22;11958;50.836;4.438;2022-07-29T02:20:53;18.20;51.50
23560;DHT22;11958;50.836;4.438;2022-07-29T02:23:24;18.20;51.20
23560;DHT22;11958;50.836;4.438;2022-07-29T02:25:53;18.10;52.80
23560;DHT22;11958;50.836;4.438;2022-07-29T02:28:20;18.10;52.50
23560;DHT22;11958;50.836;4.438;2022-07-29T02:30:47;18.00;53.30
23560;DHT22;11958;50.836;4.438;2022-07-29T02:33:16;17.90;53.50
23560;DHT22;11958;50.836;4.438;2022-07-29T02:35:45;17.90;53.70
23560;DHT22;11958;50.836;4.438;2022-07-29T02:38:15;18.10;53.20
23560;DHT22;11958;50.836;4.438;2022-07-29T02:41:02;18.20;52.10
23560;DHT22;11958;50.836;4.438;2022-07-29T02:43:30;18.40;51.40
23560;DHT22;11958;50.836;4.438;2022-07-29T02:45:58;18.30;51.80
23560;DHT22;11958;50.836;4.438;2022-07-29T02:48:34;18.30;51.50
23560;DHT22;11958;50.836;4.438;2022-07-29T02:51:07;18.20;51.40
23560;DHT22;11958;50.836;4.438;2022-07-29T02:53:34;18.20;51.90
23560;DHT22;11958;50.836;4.438;2022-07-29T02:56:08;17.90;53.50
23560;DHT22;11958;50.836;4.438;2022-07-29T02:58:41;17.90;53.70
23560;DHT22;11958;50.836;4.438;2022-07-29T03:01:20;17.80;54.10
23560;DHT22;11958;50.836;4.438;2022-07-29T03:03:48;17.90;54.00
23560;DHT22;11958;50.836;4.438;2022-07-29T03:06:16;17.80;53.60
23560;DHT22;11958;50.836;4.438;2022-07-29T03:08:42;18.10;53.20
23560;DHT22;11958;50.836;4.438;2022-07-29T03:13:42;17.80;54.20
23560;DHT22;11958;50.836;4.438;2022-07-29T03:18:40;17.80;54.10
23560;DHT22;11958;50.836;4.438;2022-07-29T03:21:06;18.00;53.60
23560;DHT22;11958;50.836;4.438;2022-07-29T03:23:32;18.20;52.00
23560;DHT22;11958;50.836;4.438;2022-07-29T03:25:58;18.30;51.30
23560;DHT22;11958;50.836;4.438;2022-07-29T03:28:25;18.20;52.30
23560;DHT22;11958;50.836;4.438;2022-07-29T03:30:52;17.90;53.90
23560;DHT22;11958;50.836;4.438;2022-07-29T03:33:18;17.80;54.20
23560;DHT22;11958;50.836;4.438;2022-07-29T03:35:44;17.80;54.60
23560;DHT22;11958;50.836;4.438;2022-07-29T03:38:09;17.90;53.80
23560;DHT22;11958;50.836;4.438;2022-07-29T03:40:44;17.60;54.60
23560;DHT22;11958;50.836;4.438;2022-07-29T03:43:12;17.20;55.30
23560;DHT22;11958;50.836;4.438;2022-07-29T03:45:42;17.50;55.70
23560;DHT22;11958;50.836;4.438;2022-07-29T03:48:13;17.40;55.30
23560;DHT22;11958;50.836;4.438;2022-07-29T03:50:40;17.30;56.00
23560;DHT22;11958;50.836;4.438;2022-07-29T03:53:06;17.30;55.50
23560;DHT22;11958;50.836;4.438;2022-07-29T03:55:37;17.40;55.50
23560;DHT22;11958;50.836;4.438;2022-07-29T03:58:06;17.80;54.50
23560;DHT22;11958;50.836;4.438;2022-07-29T04:00:34;17.40;55.50
23560;DHT22;11958;50.836;4.438;2022-07-29T04:03:01;17.70;55.10
23560;DHT22;11958;50.836;4.438;2022-07-29T04:05:28;17.40;55.90
23560;DHT22;11958;50.836;4.438;2022-07-29T04:07:54;17.20;56.80
23560;DHT22;11958;50.836;4.438;2022-07-29T04:10:20;16.90;57.60
23560;DHT22;11958;50.836;4.438;2022-07-29T04:12:45;17.10;57.30
23560;DHT22;11958;50.836;4.438;2022-07-29T04:15:11;16.90;57.60
23560;DHT22;11958;50.836;4.438;2022-07-29T04:17:37;17.00;57.30
23560;DHT22;11958;50.836;4.438;2022-07-29T04:20:03;17.40;56.30
23560;DHT22;11958;50.836;4.438;2022-07-29T04:22:29;17.20;56.50
23560;DHT22;11958;50.836;4.438;2022-07-29T04:24:55;17.10;56.70
23560;DHT22;11958;50.836;4.438;2022-07-29T04:27:20;17.00;56.90
23560;DHT22;11958;50.836;4.438;2022-07-29T04:29:46;17.20;56.40
23560;DHT22;11958;50.836;4.438;2022-07-29T04:32:11;17.10;57.20
23560;DHT22;11958;50.836;4.438;2022-07-29T04:34:37;17.30;56.60
23560;DHT22;11958;50.836;4.438;2022-07-29T04:37:03;17.50;55.50
23560;DHT22;11958;50.836;4.438;2022-07-29T04:39:29;17.30;56.70
23560;DHT22;11958;50.836;4.438;2022-07-29T04:41:55;17.20;56.60
23560;DHT22;11958;50.836;4.438;2022-07-29T04:44:20;17.10;57.50
23560;DHT22;11958;50.836;4.438;2022-07-29T04:46:46;17.10;57.50
23560;DHT22;11958;50.836;4.438;2022-07-29T04:49:12;17.10;57.30
23560;DHT22;11958;50.836;4.438;2022-07-29T04:51:38;17.10;57.50
23560;DHT22;11958;50.836;4.438;2022-07-29T04:54:04;17.30;57.10
23560;DHT22;11958;50.836;4.438;2022-07-29T04:56:29;17.50;56.50
23560;DHT22;11958;50.836;4.438;2022-07-29T04:58:55;17.30;57.10
23560;DHT22;11958;50.836;4.438;2022-07-29T05:01:20;17.30;56.80
23560;DHT22;11958;50.836;4.438;2022-07-29T05:03:46;17.50;57.40
23560;DHT22;11958;50.836;4.438;2022-07-29T05:06:12;17.40;56.80
23560;DHT22;11958;50.836;4.438;2022-07-29T05:08:37;17.40;57.10
23560;DHT22;11958;50.836;4.438;2022-07-29T05:11:03;17.70;56.70
23560;DHT22;11958;50.836;4.438;2022-07-29T05:13:29;17.40;57.10
23560;DHT22;11958;50.836;4.438;2022-07-29T05:15:55;17.40;57.50
23560;DHT22;11958;50.836;4.438;2022-07-29T05:18:21;17.50;57.40
23560;DHT22;11958;50.836;4.438;2022-07-29T05:20:47;17.70;57.60
23560;DHT22;11958;50.836;4.438;2022-07-29T05:23:12;17.70;57.70
23560;DHT22;11958;50.836;4.438;2022-07-29T05:25:38;17.90;57.70
23560;DHT22;11958;50.836;4.438;2022-07-29T05:28:04;18.00;56.70
23560;DHT22;11958;50.836;4.438;2022-07-29T05:30:29;18.10;56.90
23560;DHT22;11958;50.836;4.438;2022-07-29T05:32:55;18.10;57.00
23560;DHT22;11958;50.836;4.438;2022-07-29T05:35:20;18.20;55.10
23560;DHT22;11958;50.836;4.438;2022-07-29T05:37:46;18.10;55.90
23560;DHT22;11958;50.836;4.438;2022-07-29T05:40:12;18.20;54.70
23560;DHT22;11958;50.836;4.438;2022-07-29T05:42:37;18.40;54.30
23560;DHT22;11958;50.836;4.438;2022-07-29T05:45:03;18.60;54.20
23560;DHT22;11958;50.836;4.438;2022-07-29T05:47:32;18.90;53.90
23560;DHT22;11958;50.836;4.438;2022-07-29T05:50:00;18.60;54.80
23560;DHT22;11958;50.836;4.438;2022-07-29T05:52:26;18.40;54.40
23560;DHT22;11958;50.836;4.438;2022-07-29T05:54:52;18.70;53.00
23560;DHT22;11958;50.836;4.438;2022-07-29T05:57:19;18.80;52.70
23560;DHT22;11958;50.836;4.438;2022-07-29T05:59:45;18.60;53.50
23560;DHT22;11958;50.836;4.438;2022-07-29T06:02:11;18.40;54.20
23560;DHT22;11958;50.836;4.438;2022-07-29T06:04:37;18.60;53.30
23560;DHT22;11958;50.836;4.438;2022-07-29T06:07:02;18.50;54.20
23560;DHT22;11958;50.836;4.438;2022-07-29T06:09:28;18.30;54.80
23560;DHT22;11958;50.836;4.438;2022-07-29T06:11:54;18.30;55.00
23560;DHT22;11958;50.836;4.438;2022-07-29T06:14:19;18.90;53.40
23560;DHT22;11958;50.836;4.438;2022-07-29T06:16:45;19.00;53.10
23560;DHT22;11958;50.836;4.438;2022-07-29T06:19:11;19.00;53.00
23560;DHT22;11958;50.836;4.438;2022-07-29T06:21:44;18.90;53.50
23560;DHT22;11958;50.836;4.438;2022-07-29T06:24:11;18.90;53.90
23560;DHT22;11958;50.836;4.438;2022-07-29T06:26:45;18.60;54.60
23560;DHT22;11958;50.836;4.438;2022-07-29T06:29:11;18.50;54.70
23560;DHT22;11958;50.836;4.438;2022-07-29T06:31:37;18.70;54.90
23560;DHT22;11958;50.836;4.438;2022-07-29T06:34:05;18.80;54.10
23560;DHT22;11958;50.836;4.438;2022-07-29T06:36:35;18.70;54.40
23560;DHT22;11958;50.836;4.438;2022-07-29T06:39:00;18.90;54.30
23560;DHT22;11958;50.836;4.438;2022-07-29T06:41:26;18.80;54.10
23560;DHT22;11958;50.836;4.438;2022-07-29T06:43:52;19.10;53.70
23560;DHT22;11958;50.836;4.438;2022-07-29T06:46:18;19.10;53.90
23560;DHT22;11958;50.836;4.438;2022-07-29T06:48:45;18.90;54.20
23560;DHT22;11958;50.836;4.438;2022-07-29T06:51:11;19.10;54.20
23560;DHT22;11958;50.836;4.438;2022-07-29T06:53:38;19.10;54.10
23560;DHT22;11958;50.836;4.438;2022-07-29T06:56:07;19.30;53.10
23560;DHT22;11958;50.836;4.438;2022-07-29T06:58:38;19.40;52.70
23560;DHT22;11958;50.836;4.438;2022-07-29T07:01:05;19.60;52.70
23560;DHT22;11958;50.836;4.438;2022-07-29T07:03:31;19.70;52.20
23560;DHT22;11958;50.836;4.438;2022-07-29T07:05:57;20.20;51.00
23560;DHT22;11958;50.836;4.438;2022-07-29T07:08:26;20.40;50.70
23560;DHT22;11958;50.836;4.438;2022-07-29T07:10:52;20.30;51.00
23560;DHT22;11958;50.836;4.438;2022-07-29T07:13:20;21.10;47.80
23560;DHT22;11958;50.836;4.438;2022-07-29T07:15:46;21.00;47.60
23560;DHT22;11958;50.836;4.438;2022-07-29T07:18:14;21.20;47.40
23560;DHT22;11958;50.836;4.438;2022-07-29T07:20:40;21.10;47.40
23560;DHT22;11958;50.836;4.438;2022-07-29T07:23:06;21.20;46.90
23560;DHT22;11958;50.836;4.438;2022-07-29T07:25:32;21.30;46.80
23560;DHT22;11958;50.836;4.438;2022-07-29T07:28:00;21.20;47.10
23560;DHT22;11958;50.836;4.438;2022-07-29T07:30:26;21.00;47.30
23560;DHT22;11958;50.836;4.438;2022-07-29T07:32:55;20.70;49.40
23560;DHT22;11958;50.836;4.438;2022-07-29T07:35:23;20.90;47.80
23560;DHT22;11958;50.836;4.438;2022-07-29T07:37:49;20.60;49.60
23560;DHT22;11958;50.836;4.438;2022-07-29T07:42:48;20.50;49.70
23560;DHT22;11958;50.836;4.438;2022-07-29T07:45:23;20.30;51.50
23560;DHT22;11958;50.836;4.438;2022-07-29T07:48:06;20.40;51.70
23560;DHT22;11958;50.836;4.438;2022-07-29T07:50:41;20.40;51.50
23560;DHT22;11958;50.836;4.438;2022-07-29T07:53:15;20.60;50.70
23560;DHT22;11958;50.836;4.438;2022-07-29T07:55:44;20.40;51.90
23560;DHT22;11958;50.836;4.438;2022-07-29T07:58:10;20.40;52.10
23560;DHT22;11958;50.836;4.438;2022-07-29T08:00:36;20.40;51.50
23560;DHT22;11958;50.836;4.438;2022-07-29T08:03:01;20.40;51.90
23560;DHT22;11958;50.836;4.438;2022-07-29T08:05:27;20.70;50.70
23560;DHT22;11958;50.836;4.438;2022-07-29T08:07:56;20.80;50.60
23560;DHT22;11958;50.836;4.438;2022-07-29T08:10:25;21.00;49.90
23560;DHT22;11958;50.836;4.438;2022-07-29T08:13:26;21.20;48.80
23560;DHT22;11958;50.836;4.438;2022-07-29T08:21:17;21.40;47.90
23560;DHT22;11958;50.836;4.438;2022-07-29T08:23:44;21.40;48.10
23560;DHT22;11958;50.836;4.438;2022-07-29T08:26:24;21.60;46.80
23560;DHT22;11958;50.836;4.438;2022-07-29T08:28:49;21.70;46.80
23560;DHT22;11958;50.836;4.438;2022-07-29T08:31:16;21.70;46.30
23560;DHT22;11958;50.836;4.438;2022-07-29T08:33:42;21.70;46.80
23560;DHT22;11958;50.836;4.438;2022-07-29T08:36:08;21.70;47.30
23560;DHT22;11958;50.836;4.438;2022-07-29T08:38:37;22.20;45.60
23560;DHT22;11958;50.836;4.438;2022-07-29T08:41:11;22.20;45.30
23560;DHT22;11958;50.836;4.438;2022-07-29T08:43:47;22.00;46.90
23560;DHT22;11958;50.836;4.438;2022-07-29T08:46:16;21.90;46.50
23560;DHT22;11958;50.836;4.438;2022-07-29T08:48:42;22.30;46.30
23560;DHT22;11958;50.836;4.438;2022-07-29T08:51:08;22.70;44.90
23560;DHT22;11958;50.836;4.438;2022-07-29T08:53:41;22.80;45.30
23560;DHT22;11958;50.836;4.438;2022-07-29T08:56:37;22.70;45.10
23560;DHT22;11958;50.836;4.438;2022-07-29T08:59:04;22.70;44.90
23560;DHT22;11958;50.836;4.438;2022-07-29T09:01:43;22.90;44.30
23560;DHT22;11958;50.836;4.438;2022-07-29T09:04:14;22.90;43.80
23560;DHT22;11958;50.836;4.438;2022-07-29T09:06:57;23.00;43.90
23560;DHT22;11958;50.836;4.438;2022-07-29T09:09:24;23.20;42.60
23560;DHT22;11958;50.836;4.438;2022-07-29T09:11:50;23.10;43.70
23560;DHT22;11958;50.836;4.438;2022-07-29T09:14:15;23.10;43.50
23560;DHT22;11958;50.836;4.438;2022-07-29T09:16:53;23.00;43.60
23560;DHT22;11958;50.836;4.438;2022-07-29T09:19:20;23.00;42.40
23560;DHT22;11958;50.836;4.438;2022-07-29T09:21:46;23.00;43.20
23560;DHT22;11958;50.836;4.438;2022-07-29T09:27:00;23.20;41.60
23560;DHT22;11958;50.836;4.438;2022-07-29T09:29:45;23.30;41.30
23560;DHT22;11958;50.836;4.438;2022-07-29T09:32:11;23.30;41.80
23560;DHT22;11958;50.836;4.438;2022-07-29T09:34:48;23.60;40.10
23560;DHT22;11958;50.836;4.438;2022-07-29T09:37:26;23.60;39.90
23560;DHT22;11958;50.836;4.438;2022-07-29T09:40:21;23.40;40.30
23560;DHT22;11958;50.836;4.438;2022-07-29T09:42:48;23.50;39.40
23560;DHT22;11958;50.836;4.438;2022-07-29T09:45:30;23.50;40.10
23560;DHT22;11958;50.836;4.438;2022-07-29T09:48:26;23.50;40.30
23560;DHT22;11958;50.836;4.438;2022-07-29T09:50:52;23.80;39.40
23560;DHT22;11958;50.836;4.438;2022-07-29T09:53:32;24.20;39.10
23560;DHT22;11958;50.836;4.438;2022-07-29T09:56:20;24.60;37.90
23560;DHT22;11958;50.836;4.438;2022-07-29T09:59:16;24.50;37.70
23560;DHT22;11958;50.836;4.438;2022-07-29T10:01:42;24.50;37.10
23560;DHT22;11958;50.836;4.438;2022-07-29T10:04:08;24.30;37.10
23560;DHT22;11958;50.836;4.438;2022-07-29T10:09:22;24.40;36.40
23560;DHT22;11958;50.836;4.438;2022-07-29T10:12:04;24.10;36.60
23560;DHT22;11958;50.836;4.438;2022-07-29T10:14:32;24.00;37.50
23560;DHT22;11958;50.836;4.438;2022-07-29T10:16:59;24.00;37.70
23560;DHT22;11958;50.836;4.438;2022-07-29T10:19:25;24.20;37.10
23560;DHT22;11958;50.836;4.438;2022-07-29T10:21:52;24.30;36.90
23560;DHT22;11958;50.836;4.438;2022-07-29T10:24:18;24.40;37.20
23560;DHT22;11958;50.836;4.438;2022-07-29T10:26:55;24.50;36.10
23560;DHT22;11958;50.836;4.438;2022-07-29T10:29:24;24.80;35.90
23560;DHT22;11958;50.836;4.438;2022-07-29T10:31:57;25.40;35.10
23560;DHT22;11958;50.836;4.438;2022-07-29T10:41:07;25.20;33.60
23560;DHT22;11958;50.836;4.438;2022-07-29T10:46:35;26.00;33.80
23560;DHT22;11958;50.836;4.438;2022-07-29T10:49:16;25.80;34.50
23560;DHT22;11958;50.836;4.438;2022-07-29T10:52:17;25.80;34.90
23560;DHT22;11958;50.836;4.438;2022-07-29T10:54:56;26.10;35.00
23560;DHT22;11958;50.836;4.438;2022-07-29T10:57:27;25.80;34.20
23560;DHT22;11958;50.836;4.438;2022-07-29T11:02:45;24.90;34.90
23560;DHT22;11958;50.836;4.438;2022-07-29T11:05:18;25.00;34.40
23560;DHT22;11958;50.836;4.438;2022-07-29T11:08:23;25.30;34.80
23560;DHT22;11958;50.836;4.438;2022-07-29T11:10:53;26.00;33.40
23560;DHT22;11958;50.836;4.438;2022-07-29T11:13:57;25.70;32.30
23560;DHT22;11958;50.836;4.438;2022-07-29T11:16:57;26.10;31.80
23560;DHT22;11958;50.836;4.438;2022-07-29T11:19:30;25.80;32.00
23560;DHT22;11958;50.836;4.438;2022-07-29T11:21:56;25.90;32.40
23560;DHT22;11958;50.836;4.438;2022-07-29T11:24:29;26.10;31.50
23560;DHT22;11958;50.836;4.438;2022-07-29T11:29:58;26.70;30.80
23560;DHT22;11958;50.836;4.438;2022-07-29T11:32:48;27.50;29.10
23560;DHT22;11958;50.836;4.438;2022-07-29T11:35:22;27.40;28.90
23560;DHT22;11958;50.836;4.438;2022-07-29T11:38:41;27.30;28.50
23560;DHT22;11958;50.836;4.438;2022-07-29T11:41:29;27.70;29.20
23560;DHT22;11958;50.836;4.438;2022-07-29T11:44:01;27.80;27.70
23560;DHT22;11958;50.836;4.438;2022-07-29T11:46:46;27.60;27.30
23560;DHT22;11958;50.836;4.438;2022-07-29T11:49:21;27.60;27.20
23560;DHT22;11958;50.836;4.438;2022-07-29T11:51:54;27.50;26.30
23560;DHT22;11958;50.836;4.438;2022-07-29T11:54:25;27.40;27.30
23560;DHT22;11958;50.836;4.438;2022-07-29T11:56:57;27.80;27.30
23560;DHT22;11958;50.836;4.438;2022-07-29T11:59:24;28.00;26.90
23560;DHT22;11958;50.836;4.438;2022-07-29T12:01:57;27.80;27.50
23560;DHT22;11958;50.836;4.438;2022-07-29T12:04:26;27.80;26.80
23560;DHT22;11958;50.836;4.438;2022-07-29T12:06:53;27.90;26.80
23560;DHT22;11958;50.836;4.438;2022-07-29T12:09:20;27.80;26.10
23560;DHT22;11958;50.836;4.438;2022-07-29T12:12:12;27.70;25.70
23560;DHT22;11958;50.836;4.438;2022-07-29T12:15:22;27.80;26.10
23560;DHT22;11958;50.836;4.438;2022-07-29T12:17:49;28.20;26.20
23560;DHT22;11958;50.836;4.438;2022-07-29T12:20:25;28.00;26.60
23560;DHT22;11958;50.836;4.438;2022-07-29T12:22:51;28.20;25.90
23560;DHT22;11958;50.836;4.438;2022-07-29T12:25:20;29.30;24.90
23560;DHT22;11958;50.836;4.438;2022-07-29T12:27:45;31.30;22.10
23560;DHT22;11958;50.836;4.438;2022-07-29T12:30:15;31.90;21.20
23560;DHT22;11958;50.836;4.438;2022-07-29T12:32:46;32.50;20.50
23560;DHT22;11958;50.836;4.438;2022-07-29T12:35:17;31.40;21.30
23560;DHT22;11958;50.836;4.438;2022-07-29T12:37:46;29.60;23.40
23560;DHT22;11958;50.836;4.438;2022-07-29T12:40:17;28.90;24.50
23560;DHT22;11958;50.836;4.438;2022-07-29T12:43:05;28.60;24.90
23560;DHT22;11958;50.836;4.438;2022-07-29T12:45:33;28.30;25.70
23560;DHT22;11958;50.836;4.438;2022-07-29T12:47:58;28.50;25.40
23560;DHT22;11958;50.836;4.438;2022-07-29T12:50:24;28.70;25.10
23560;DHT22;11958;50.836;4.438;2022-07-29T12:52:50;28.40;25.80
23560;DHT22;11958;50.836;4.438;2022-07-29T12:55:37;28.70;25.50
23560;DHT22;11958;50.836;4.438;2022-07-29T12:58:02;28.90;24.60
23560;DHT22;11958;50.836;4.438;2022-07-29T13:00:27;29.00;24.00
23560;DHT22;11958;50.836;4.438;2022-07-29T13:02:57;28.80;24.10
23560;DHT22;11958;50.836;4.438;2022-07-29T13:05:24;28.20;24.80
23560;DHT22;11958;50.836;4.438;2022-07-29T13:07:50;27.80;25.30
23560;DHT22;11958;50.836;4.438;2022-07-29T13:10:19;27.70;25.20
23560;DHT22;11958;50.836;4.438;2022-07-29T13:13:08;27.70;24.80
23560;DHT22;11958;50.836;4.438;2022-07-29T13:15:37;27.90;24.50
23560;DHT22;11958;50.836;4.438;2022-07-29T13:18:03;28.00;25.40
23560;DHT22;11958;50.836;4.438;2022-07-29T13:20:30;28.90;24.90
23560;DHT22;11958;50.836;4.438;2022-07-29T13:22:58;28.80;23.80
23560;DHT22;11958;50.836;4.438;2022-07-29T13:25:31;28.50;24.60
23560;DHT22;11958;50.836;4.438;2022-07-29T13:27:58;28.20;25.20
23560;DHT22;11958;50.836;4.438;2022-07-29T13:30:24;28.00;26.50
23560;DHT22;11958;50.836;4.438;2022-07-29T13:32:51;28.20;25.80
23560;DHT22;11958;50.836;4.438;2022-07-29T13:35:18;28.40;24.60
23560;DHT22;11958;50.836;4.438;2022-07-29T13:37:44;28.40;25.70
23560;DHT22;11958;50.836;4.438;2022-07-29T13:40:10;28.50;26.00
23560;DHT22;11958;50.836;4.438;2022-07-29T13:42:37;28.80;26.00
23560;DHT22;11958;50.836;4.438;2022-07-29T13:45:03;28.50;24.50
23560;DHT22;11958;50.836;4.438;2022-07-29T13:50:38;28.60;24.90
23560;DHT22;11958;50.836;4.438;2022-07-29T13:53:24;28.40;25.00
23560;DHT22;11958;50.836;4.438;2022-07-29T13:56:06;28.30;25.50
23560;DHT22;11958;50.836;4.438;2022-07-29T13:58:34;29.90;23.20
23560;DHT22;11958;50.836;4.438;2022-07-29T14:01:00;31.80;20.90
23560;DHT22;11958;50.836;4.438;2022-07-29T14:03:26;32.90;19.20
23560;DHT22;11958;50.836;4.438;2022-07-29T14:05:51;33.00;19.70
23560;DHT22;11958;50.836;4.438;2022-07-29T14:08:17;33.10;18.50
23560;DHT22;11958;50.836;4.438;2022-07-29T14:10:43;32.80;18.60
23560;DHT22;11958;50.836;4.438;2022-07-29T14:13:08;33.10;18.40
23560;DHT22;11958;50.836;4.438;2022-07-29T14:15:34;34.10;17.50
23560;DHT22;11958;50.836;4.438;2022-07-29T14:18:00;35.10;17.10
23560;DHT22;11958;50.836;4.438;2022-07-29T14:20:26;35.20;16.80
23560;DHT22;11958;50.836;4.438;2022-07-29T14:22:55;35.90;15.70
23560;DHT22;11958;50.836;4.438;2022-07-29T14:25:20;34.70;16.10
23560;DHT22;11958;50.836;4.438;2022-07-29T14:27:46;34.00;16.70
23560;DHT22;11958;50.836;4.438;2022-07-29T14:30:12;34.80;16.50
23560;DHT22;11958;50.836;4.438;2022-07-29T14:32:38;35.70;16.00
23560;DHT22;11958;50.836;4.438;2022-07-29T14:35:04;35.00;16.50
23560;DHT22;11958;50.836;4.438;2022-07-29T14:37:30;34.40;15.80
23560;DHT22;11958;50.836;4.438;2022-07-29T14:39:56;35.20;15.10
23560;DHT22;11958;50.836;4.438;2022-07-29T14:42:24;36.10;15.50
23560;DHT22;11958;50.836;4.438;2022-07-29T14:44:50;36.80;14.60
23560;DHT22;11958;50.836;4.438;2022-07-29T14:47:16;37.10;14.90
23560;DHT22;11958;50.836;4.438;2022-07-29T14:49:41;37.60;13.40
23560;DHT22;11958;50.836;4.438;2022-07-29T14:52:07;38.20;13.30
23560;DHT22;11958;50.836;4.438;2022-07-29T14:54:32;37.40;13.10
23560;DHT22;11958;50.836;4.438;2022-07-29T14:56:58;36.60;13.60
23560;DHT22;11958;50.836;4.438;2022-07-29T14:59:24;34.20;15.10
23560;DHT22;11958;50.836;4.438;2022-07-29T15:01:52;32.50;16.80
23560;DHT22;11958;50.836;4.438;2022-07-29T15:04:18;30.70;18.30
23560;DHT22;11958;50.836;4.438;2022-07-29T15:06:43;29.30;19.90
23560;DHT22;11958;50.836;4.438;2022-07-29T15:09:09;29.00;21.50
23560;DHT22;11958;50.836;4.438;2022-07-29T15:11:35;29.30;21.00
23560;DHT22;11958;50.836;4.438;2022-07-29T15:14:18;29.80;20.30
23560;DHT22;11958;50.836;4.438;2022-07-29T15:16:54;30.20;20.30
23560;DHT22;11958;50.836;4.438;2022-07-29T15:19:31;29.80;20.50
23560;DHT22;11958;50.836;4.438;2022-07-29T15:22:09;28.80;20.50
23560;DHT22;11958;50.836;4.438;2022-07-29T15:25:16;28.40;21.20
23560;DHT22;11958;50.836;4.438;2022-07-29T15:27:52;28.20;22.10
23560;DHT22;11958;50.836;4.438;2022-07-29T15:30:18;28.40;22.50
23560;DHT22;11958;50.836;4.438;2022-07-29T15:32:44;28.20;23.00
23560;DHT22;11958;50.836;4.438;2022-07-29T15:35:09;28.30;22.40
23560;DHT22;11958;50.836;4.438;2022-07-29T15:37:37;28.20;23.00
23560;DHT22;11958;50.836;4.438;2022-07-29T15:40:04;28.00;23.40
23560;DHT22;11958;50.836;4.438;2022-07-29T15:42:29;28.00;23.40
23560;DHT22;11958;50.836;4.438;2022-07-29T15:44:55;27.70;23.20
23560;DHT22;11958;50.836;4.438;2022-07-29T15:47:21;28.10;22.90
23560;DHT22;11958;50.836;4.438;2022-07-29T15:49:52;28.00;22.50
23560;DHT22;11958;50.836;4.438;2022-07-29T15:52:28;27.90;22.90
23560;DHT22;11958;50.836;4.438;2022-07-29T15:54:55;27.80;22.80
23560;DHT22;11958;50.836;4.438;2022-07-29T15:57:21;27.60;23.50
23560;DHT22;11958;50.836;4.438;2022-07-29T15:59:46;27.30;24.00
23560;DHT22;11958;50.836;4.438;2022-07-29T16:02:12;27.50;23.60
23560;DHT22;11958;50.836;4.438;2022-07-29T16:05:00;28.00;23.20
23560;DHT22;11958;50.836;4.438;2022-07-29T16:07:26;28.20;22.50
23560;DHT22;11958;50.836;4.438;2022-07-29T16:09:51;27.80;24.10
23560;DHT22;11958;50.836;4.438;2022-07-29T16:12:17;27.60;23.80
23560;DHT22;11958;50.836;4.438;2022-07-29T16:14:43;27.50;23.40
23560;DHT22;11958;50.836;4.438;2022-07-29T16:17:08;27.50;23.40
23560;DHT22;11958;50.836;4.438;2022-07-29T16:19:34;27.50;22.90
23560;DHT22;11958;50.836;4.438;2022-07-29T16:22:00;27.60;23.20
23560;DHT22;11958;50.836;4.438;2022-07-29T16:24:25;27.80;23.80
23560;DHT22;11958;50.836;4.438;2022-07-29T16:27:09;27.80;25.10
23560;DHT22;11958;50.836;4.438;2022-07-29T16:30:11;27.70;23.70
23560;DHT22;11958;50.836;4.438;2022-07-29T16:33:17;27.30;24.00
23560;DHT22;11958;50.836;4.438;2022-07-29T16:35:43;27.60;24.60
23560;DHT22;11958;50.836;4.438;2022-07-29T16:38:09;28.00;23.40